Flugplatz Dortmund Airport

Bericht für EDLW

vom 25.02. um 23:50 UTC

Wind 6 kt aus 70°

Sichtweite 9700 m

aufgebrochene Bewölkung in 6100 ft

bedeckt in 8800 ft

Temperatur 3°C

Taupunkt 1°C

Luftfeuchtigkeit 87%

Luftdruck 999 hPa

EDLW 252350Z AUTO 07006KT 9999 // BKN061/// OVC088/// 03/01 Q0999

Prognose für EDLW

vom 25.02. um 17:00 UTC

Am 25.02. zwischen 18:00 UTC und 20:00 UTC

Wind 6 kt aus 130°

Sichtweite 9700 m

aufgelockert bewölkt in 4500 ft


Am 25.02. zwischen 20:00 und 00:00 UTC übergehend zu

Wind 8 kt aus 70°

Sichtweite 9700 m

aufgelockert bewölkt in 4500 ft


Zwischen 02:00 UTC und 12:00 UTC zeitweise

Regen


Zwischen 07:00 UTC und 14:00 UTC zeitweise mit einer Wahrscheinlichkeit von 40%

Sichtweite 4000 m

schwacher Regen

schwacher Sprühregen

aufgebrochene Bewölkung in 1000 ft

TAF EDLW 251700Z 2518/2618 13006KT 9999 SCT045 BECMG 2520/2523 07008KT TEMPO 2602/2612 RA PROB40 TEMPO 2607/2614 4000 -RADZ BKN010
Impressum